Time;durP1;ratioP1;P1;durP2;ratioP2;P2;SDS_P1;SDS_P2;PMS_P1;PMS_P2;Temp;Humidity;BMP_temperature;BMP_pressure;BME280_temperature;BME280_humidity;BME280_pressure;Samples;Min_cycle;Max_cycle;Signal;HPM_P1;HPM_P2
2023/08/23 00:00:48;;;;;;;8.38;7.10;;;;;;;;;;4443785;32;317399;-81
2023/08/23 00:03:16;;;;;;;8.90;7.35;;;;;;;;;;4426032;32;316689;-81
2023/08/23 00:05:43;;;;;;;9.52;8.10;;;;;;;;;;4442745;32;317214;-82
2023/08/23 00:08:11;;;;;;;10.95;7.62;;;;;;;;;;4434298;32;317399;-82
2023/08/23 00:10:38;;;;;;;11.30;7.30;;;;;;;;;;4443358;32;347803;-81
2023/08/23 00:13:05;;;;;;;7.72;6.95;;;;;;;;;;4434212;32;318318;-80
2023/08/23 00:15:32;;;;;;;9.73;7.05;;;;;;;;;;4444669;32;317006;-80
2023/08/23 00:17:58;;;;;;;11.07;8.65;;;;;;;;;;4432536;32;317453;-80
2023/08/23 00:20:25;;;;;;;13.35;8.32;;;;;;;;;;4442983;32;317422;-80
2023/08/23 00:22:52;;;;;;;10.90;7.72;;;;;;;;;;4443678;32;318376;-81
2023/08/23 00:25:20;;;;;;;8.82;7.93;;;;;;;;;;4432865;32;318148;-81
2023/08/23 00:27:47;;;;;;;16.23;8.77;;;;;;;;;;4443076;32;317166;-81
2023/08/23 00:30:14;;;;;;;13.50;8.60;;;;;;;;;;4433246;32;318516;-81
2023/08/23 00:32:41;;;;;;;12.95;8.15;;;;;;;;;;4443628;32;318343;-81
2023/08/23 00:35:08;;;;;;;12.13;9.00;;;;;;;;;;4432922;32;318448;-81
2023/08/23 00:37:34;;;;;;;15.60;9.02;;;;;;;;;;4442882;32;319011;-81
2023/08/23 00:40:02;;;;;;;18.40;9.40;;;;;;;;;;4433492;32;348985;-82
2023/08/23 00:42:33;;;;;;;18.05;9.93;;;;;;;;;;4444025;32;318285;-81
2023/08/23 00:45:00;;;;;;;18.58;9.63;;;;;;;;;;4433099;32;318356;-82
2023/08/23 00:47:26;;;;;;;14.55;9.80;;;;;;;;;;4442648;32;318174;-81
2023/08/23 00:49:55;;;;;;;11.98;10.05;;;;;;;;;;4443188;32;346714;-82
2023/08/23 00:52:23;;;;;;;10.90;8.65;;;;;;;;;;4429179;32;420289;-82
2023/08/23 00:54:50;;;;;;;19.80;9.48;;;;;;;;;;4447210;32;318587;-81
2023/08/23 00:57:17;;;;;;;10.95;8.68;;;;;;;;;;4449581;32;318704;-82
2023/08/23 00:59:45;;;;;;;13.95;8.65;;;;;;;;;;4458900;32;318550;-82
2023/08/23 01:02:12;;;;;;;10.05;7.82;;;;;;;;;;4448618;32;339541;-82
2023/08/23 01:04:39;;;;;;;15.32;8.00;;;;;;;;;;4459643;32;318189;-81
2023/08/23 01:07:12;;;;;;;12.55;9.00;;;;;;;;;;4449411;32;318111;-82
2023/08/23 01:09:48;;;;;;;10.05;8.10;;;;;;;;;;4459312;32;318304;-82
2023/08/23 01:12:23;;;;;;;9.15;7.90;;;;;;;;;;4448776;32;318149;-82
2023/08/23 01:14:56;;;;;;;13.85;8.07;;;;;;;;;;4459802;32;316696;-82
2023/08/23 01:17:23;;;;;;;13.68;9.48;;;;;;;;;;4444998;32;417513;-82
2023/08/23 01:19:51;;;;;;;12.07;7.65;;;;;;;;;;4458518;32;318295;-82
2023/08/23 01:22:19;;;;;;;9.68;8.00;;;;;;;;;;4449564;32;318376;-82
2023/08/23 01:24:48;;;;;;;12.05;8.35;;;;;;;;;;4459465;32;317210;-82
2023/08/23 01:27:16;;;;;;;12.37;7.60;;;;;;;;;;4449448;32;318250;-81
2023/08/23 01:29:43;;;;;;;7.60;6.90;;;;;;;;;;4460289;32;317718;-82
2023/08/23 01:32:26;;;;;;;8.98;7.55;;;;;;;;;;4451606;32;327131;-81
2023/08/23 01:34:57;;;;;;;12.52;7.15;;;;;;;;;;4462602;32;317306;-80
2023/08/23 01:37:25;;;;;;;11.68;8.25;;;;;;;;;;4448122;32;417487;-81
2023/08/23 01:39:56;;;;;;;12.27;8.05;;;;;;;;;;4460860;32;318233;-81
2023/08/23 01:42:23;;;;;;;8.75;7.85;;;;;;;;;;4448036;32;418712;-81
2023/08/23 01:44:50;;;;;;;16.20;7.50;;;;;;;;;;4460575;32;331385;-80
2023/08/23 01:47:17;;;;;;;10.43;8.18;;;;;;;;;;4451777;32;318093;-80
2023/08/23 01:49:44;;;;;;;9.40;7.60;;;;;;;;;;4461960;32;318505;-80
2023/08/23 01:52:11;;;;;;;12.82;7.25;;;;;;;;;;4443821;32;317391;-80
2023/08/23 01:54:37;;;;;;;9.75;7.37;;;;;;;;;;4445935;32;351817;-81
2023/08/23 01:57:05;;;;;;;13.43;8.93;;;;;;;;;;4451817;32;317069;-81
2023/08/23 01:59:32;;;;;;;10.18;7.22;;;;;;;;;;4461607;32;324999;-81
2023/08/23 02:01:59;;;;;;;10.23;8.23;;;;;;;;;;4451652;32;318260;-81
2023/08/23 02:04:26;;;;;;;11.00;7.82;;;;;;;;;;4460611;32;318662;-81
2023/08/23 02:06:55;;;;;;;11.77;8.75;;;;;;;;;;4461500;32;327389;-80
2023/08/23 02:09:21;;;;;;;10.98;7.82;;;;;;;;;;4447304;32;417534;-81
2023/08/23 02:11:48;;;;;;;9.45;8.13;;;;;;;;;;4461697;32;318284;-80
2023/08/23 02:14:16;;;;;;;8.52;7.65;;;;;;;;;;4447083;32;316783;-80
2023/08/23 02:16:43;;;;;;;9.27;7.78;;;;;;;;;;4446115;32;317116;-80
2023/08/23 02:19:10;;;;;;;9.65;7.97;;;;;;;;;;4435980;32;317099;-81
2023/08/23 02:21:37;;;;;;;8.95;7.35;;;;;;;;;;4431153;32;317521;-80
2023/08/23 02:24:04;;;;;;;15.80;9.18;;;;;;;;;;4434539;32;317454;-80
2023/08/23 02:26:35;;;;;;;15.75;9.38;;;;;;;;;;4445531;32;317937;-81
2023/08/23 02:29:01;;;;;;;11.00;8.38;;;;;;;;;;4434509;32;318584;-81
2023/08/23 02:31:32;;;;;;;11.82;7.93;;;;;;;;;;4445823;32;317962;-81
2023/08/23 02:33:59;;;;;;;13.05;7.97;;;;;;;;;;4420950;32;318007;-82
2023/08/23 02:36:26;;;;;;;8.98;7.65;;;;;;;;;;4430293;32;333353;-81
2023/08/23 02:38:54;;;;;;;11.88;7.93;;;;;;;;;;4444423;32;317263;-81
2023/08/23 02:41:22;;;;;;;13.35;8.65;;;;;;;;;;4432629;32;417550;-81
2023/08/23 02:43:48;;;;;;;9.50;7.78;;;;;;;;;;4445421;32;322851;-81
2023/08/23 02:46:15;;;;;;;9.23;8.27;;;;;;;;;;4435943;32;317172;-81
2023/08/23 02:48:43;;;;;;;10.27;7.28;;;;;;;;;;4443998;32;317077;-82
2023/08/23 02:51:10;;;;;;;10.85;8.75;;;;;;;;;;4420490;32;318247;-82
2023/08/23 02:53:36;;;;;;;10.02;7.65;;;;;;;;;;4444038;32;318256;-82
2023/08/23 02:56:03;;;;;;;12.23;8.60;;;;;;;;;;4446255;32;318091;-81
2023/08/23 02:58:30;;;;;;;12.98;9.05;;;;;;;;;;4460721;32;318242;-82
2023/08/23 03:00:57;;;;;;;10.60;8.95;;;;;;;;;;4451074;32;318464;-82
2023/08/23 03:03:24;;;;;;;11.77;7.53;;;;;;;;;;4459200;32;318355;-82
2023/08/23 03:05:55;;;;;;;10.57;8.57;;;;;;;;;;4460490;32;318628;-82
2023/08/23 03:08:22;;;;;;;10.07;9.07;;;;;;;;;;4446542;32;419030;-82
2023/08/23 03:10:48;;;;;;;10.65;8.88;;;;;;;;;;4452643;32;327837;-81
2023/08/23 03:13:15;;;;;;;13.15;9.52;;;;;;;;;;4435124;32;318185;-81
2023/08/23 03:15:42;;;;;;;11.25;8.60;;;;;;;;;;4445368;32;317858;-81
2023/08/23 03:18:09;;;;;;;11.45;8.73;;;;;;;;;;4434802;32;318193;-82
2023/08/23 03:20:36;;;;;;;14.23;8.52;;;;;;;;;;4445287;32;318141;-81
2023/08/23 03:23:04;;;;;;;13.62;8.18;;;;;;;;;;4433621;32;318601;-81
2023/08/23 03:25:33;;;;;;;9.68;8.38;;;;;;;;;;4429816;32;318408;-81
2023/08/23 03:28:00;;;;;;;13.07;9.23;;;;;;;;;;4442987;32;316495;-81
2023/08/23 03:30:26;;;;;;;17.97;9.70;;;;;;;;;;4432626;32;348110;-81
2023/08/23 03:32:53;;;;;;;16.60;10.43;;;;;;;;;;4444966;32;318432;-81
2023/08/23 03:35:20;;;;;;;14.13;10.10;;;;;;;;;;4433485;32;319943;-82
2023/08/23 03:37:46;;;;;;;22.10;10.60;;;;;;;;;;4443807;32;318804;-82
2023/08/23 03:40:14;;;;;;;12.80;9.50;;;;;;;;;;4434708;32;319192;-81
2023/08/23 03:42:41;;;;;;;22.13;10.10;;;;;;;;;;4444600;32;317543;-82
2023/08/23 03:45:09;;;;;;;13.70;9.70;;;;;;;;;;4444360;32;319138;-81
2023/08/23 03:47:36;;;;;;;10.75;9.52;;;;;;;;;;4431677;32;418804;-81
2023/08/23 03:50:02;;;;;;;14.15;9.50;;;;;;;;;;4443655;32;318170;-81
2023/08/23 03:52:31;;;;;;;13.50;9.05;;;;;;;;;;4434468;32;318237;-79
2023/08/23 03:54:58;;;;;;;10.40;9.30;;;;;;;;;;4442706;32;339546;-80
2023/08/23 03:57:26;;;;;;;13.25;9.45;;;;;;;;;;4433146;32;358234;-80
2023/08/23 03:59:52;;;;;;;18.45;10.18;;;;;;;;;;4444365;32;318072;-80
2023/08/23 04:02:19;;;;;;;10.52;8.60;;;;;;;;;;4427695;32;318707;-82
2023/08/23 04:04:46;;;;;;;12.10;8.32;;;;;;;;;;4454424;32;317693;-80
2023/08/23 04:07:16;;;;;;;20.35;10.23;;;;;;;;;;4429562;32;357879;-80
2023/08/23 04:09:43;;;;;;;13.62;9.93;;;;;;;;;;4444370;32;319182;-82
2023/08/23 04:12:10;;;;;;;22.13;10.15;;;;;;;;;;4435471;32;318704;-83
2023/08/23 04:14:38;;;;;;;14.85;10.73;;;;;;;;;;4443084;32;319522;-82
2023/08/23 04:17:05;;;;;;;16.12;11.05;;;;;;;;;;4442962;32;318735;-83
2023/08/23 04:19:32;;;;;;;18.73;10.95;;;;;;;;;;4433566;32;318723;-83
2023/08/23 04:22:00;;;;;;;18.55;10.73;;;;;;;;;;4444387;32;319298;-82
2023/08/23 04:24:27;;;;;;;18.10;10.27;;;;;;;;;;4433152;32;319614;-83
2023/08/23 04:26:53;;;;;;;15.23;9.43;;;;;;;;;;4443339;32;318648;-83
2023/08/23 04:29:20;;;;;;;15.55;10.07;;;;;;;;;;4434539;32;318729;-82
2023/08/23 04:31:48;;;;;;;12.80;10.88;;;;;;;;;;4444151;32;318825;-82
2023/08/23 04:34:15;;;;;;;16.05;10.13;;;;;;;;;;4439931;32;319345;-82
2023/08/23 04:36:42;;;;;;;15.07;10.00;;;;;;;;;;4459715;32;319314;-82
2023/08/23 04:39:09;;;;;;;26.50;11.40;;;;;;;;;;4458694;32;319357;-82
2023/08/23 04:41:36;;;;;;;17.17;10.43;;;;;;;;;;4444326;32;420155;-82
2023/08/23 04:44:03;;;;;;;24.92;13.27;;;;;;;;;;4459762;32;319242;-82
2023/08/23 04:46:30;;;;;;;26.12;15.88;;;;;;;;;;4446975;32;319412;-82
2023/08/23 04:48:58;;;;;;;27.95;14.43;;;;;;;;;;4457949;32;343966;-82
2023/08/23 04:51:25;;;;;;;23.00;14.25;;;;;;;;;;4448523;32;320187;-82
2023/08/23 04:53:51;;;;;;;28.55;12.98;;;;;;;;;;4458101;32;326412;-83
2023/08/23 04:56:19;;;;;;;32.90;13.55;;;;;;;;;;4436928;32;319210;-83
2023/08/23 04:58:46;;;;;;;22.45;13.05;;;;;;;;;;4442698;32;319303;-83
2023/08/23 05:01:13;;;;;;;18.83;12.43;;;;;;;;;;4433224;32;339466;-81
2023/08/23 05:03:40;;;;;;;17.42;11.85;;;;;;;;;;4442819;32;319252;-82
2023/08/23 05:06:08;;;;;;;21.73;12.20;;;;;;;;;;4446175;32;333145;-82
2023/08/23 05:08:35;;;;;;;19.73;11.73;;;;;;;;;;4433881;32;387799;-82
2023/08/23 05:11:02;;;;;;;18.35;10.55;;;;;;;;;;4447098;32;319216;-82
2023/08/23 05:13:29;;;;;;;15.27;11.60;;;;;;;;;;4437086;32;319260;-82
2023/08/23 05:15:57;;;;;;;17.02;9.85;;;;;;;;;;4445674;32;319200;-80
2023/08/23 05:18:24;;;;;;;10.18;9.15;;;;;;;;;;4436985;32;318071;-81
2023/08/23 05:20:54;;;;;;;17.75;12.07;;;;;;;;;;4446987;32;318257;-81
2023/08/23 05:23:22;;;;;;;15.90;9.95;;;;;;;;;;4435356;32;319139;-81
2023/08/23 05:25:51;;;;;;;12.85;10.93;;;;;;;;;;4445241;32;317609;-82
2023/08/23 05:28:18;;;;;;;13.13;9.15;;;;;;;;;;4437892;32;319362;-82
2023/08/23 05:30:45;;;;;;;18.25;10.27;;;;;;;;;;4445540;32;318058;-82
2023/08/23 05:33:12;;;;;;;22.33;10.98;;;;;;;;;;4435774;32;319342;-83
2023/08/23 05:35:40;;;;;;;11.90;10.60;;;;;;;;;;4445598;32;318441;-82
2023/08/23 05:38:07;;;;;;;18.12;9.23;;;;;;;;;;4446886;32;320028;-81
2023/08/23 05:40:35;;;;;;;20.85;9.52;;;;;;;;;;4436564;32;318362;-82
2023/08/23 05:43:02;;;;;;;12.90;9.50;;;;;;;;;;4446737;32;318151;-81
2023/08/23 05:45:29;;;;;;;27.77;11.93;;;;;;;;;;4435328;32;318374;-82
2023/08/23 05:47:56;;;;;;;18.23;10.75;;;;;;;;;;4446603;32;319285;-82
2023/08/23 05:50:23;;;;;;;26.15;11.50;;;;;;;;;;4436794;32;318727;-82
2023/08/23 05:52:50;;;;;;;27.85;10.90;;;;;;;;;;4446471;32;319710;-82
2023/08/23 05:55:17;;;;;;;19.50;10.52;;;;;;;;;;4435438;32;319296;-81
2023/08/23 05:57:45;;;;;;;28.38;10.40;;;;;;;;;;4445585;32;319768;-81
2023/08/23 06:00:14;;;;;;;22.58;11.48;;;;;;;;;;4435341;32;319181;-82
2023/08/23 06:02:41;;;;;;;13.18;9.43;;;;;;;;;;4446440;32;318805;-82
2023/08/23 06:05:10;;;;;;;26.52;10.50;;;;;;;;;;4446628;32;318289;-81
2023/08/23 06:07:37;;;;;;;15.85;9.73;;;;;;;;;;4433959;32;418161;-81
2023/08/23 06:10:05;;;;;;;32.35;11.32;;;;;;;;;;4446571;32;317660;-81
2023/08/23 06:12:31;;;;;;;17.67;10.30;;;;;;;;;;4435493;32;338285;-82
2023/08/23 06:15:01;;;;;;;15.85;10.25;;;;;;;;;;4446366;32;318610;-82
2023/08/23 06:17:28;;;;;;;13.82;9.85;;;;;;;;;;4421884;32;319255;-82
2023/08/23 06:19:55;;;;;;;22.85;11.32;;;;;;;;;;4446899;32;317439;-82
2023/08/23 06:22:22;;;;;;;19.67;12.02;;;;;;;;;;4421178;32;319583;-81
2023/08/23 06:24:50;;;;;;;34.25;14.50;;;;;;;;;;4444379;32;319545;-82
2023/08/23 06:27:17;;;;;;;31.67;15.32;;;;;;;;;;4445454;32;319430;-82
2023/08/23 06:29:44;;;;;;;23.02;12.95;;;;;;;;;;4460897;32;318969;-81
2023/08/23 06:32:12;;;;;;;11.43;9.80;;;;;;;;;;4451545;32;319359;-83
2023/08/23 06:34:39;;;;;;;12.52;10.60;;;;;;;;;;4462118;32;318026;-82
2023/08/23 06:37:06;;;;;;;12.98;10.55;;;;;;;;;;4460676;32;319155;-81
2023/08/23 06:39:33;;;;;;;16.87;10.15;;;;;;;;;;4450579;32;319520;-81
2023/08/23 06:41:59;;;;;;;10.70;9.45;;;;;;;;;;4461985;32;319225;-81
2023/08/23 06:44:26;;;;;;;11.98;10.38;;;;;;;;;;4443697;32;317633;-82
2023/08/23 06:46:53;;;;;;;13.57;10.38;;;;;;;;;;4460064;32;319399;-82
2023/08/23 06:49:21;;;;;;;17.10;9.73;;;;;;;;;;4450418;32;328224;-82
2023/08/23 06:51:48;;;;;;;12.45;9.27;;;;;;;;;;4460090;32;344538;-82
2023/08/23 06:54:14;;;;;;;10.50;9.15;;;;;;;;;;4451791;32;318481;-82
2023/08/23 06:56:41;;;;;;;15.00;9.48;;;;;;;;;;4446474;32;318293;-82
2023/08/23 06:59:08;;;;;;;14.02;8.73;;;;;;;;;;4445150;32;318222;-82
2023/08/23 07:01:34;;;;;;;16.42;10.13;;;;;;;;;;4435973;32;318203;-82
2023/08/23 07:04:01;;;;;;;12.00;9.93;;;;;;;;;;4446254;32;319326;-82
2023/08/23 07:06:30;;;;;;;16.87;10.15;;;;;;;;;;4436538;32;318306;-82
2023/08/23 07:08:58;;;;;;;13.80;10.13;;;;;;;;;;4445961;32;319075;-83
2023/08/23 07:11:24;;;;;;;16.23;10.38;;;;;;;;;;4435933;32;319505;-82
2023/08/23 07:13:51;;;;;;;12.48;9.65;;;;;;;;;;4445338;32;318858;-82
2023/08/23 07:16:18;;;;;;;10.77;9.05;;;;;;;;;;4434100;32;318310;-83
2023/08/23 07:18:44;;;;;;;13.70;9.57;;;;;;;;;;4446152;32;318885;-82
2023/08/23 07:21:11;;;;;;;16.15;10.57;;;;;;;;;;4436316;32;318269;-82
2023/08/23 07:23:40;;;;;;;11.40;10.18;;;;;;;;;;4443886;32;319389;-83
2023/08/23 07:26:07;;;;;;;11.32;10.23;;;;;;;;;;4445139;32;329095;-82
2023/08/23 07:28:35;;;;;;;15.00;9.43;;;;;;;;;;4433436;32;418545;-82
2023/08/23 07:31:03;;;;;;;24.50;9.85;;;;;;;;;;4447185;32;317551;-81
2023/08/23 07:33:30;;;;;;;11.65;9.10;;;;;;;;;;4434361;32;318167;-82
2023/08/23 07:35:58;;;;;;;10.95;9.80;;;;;;;;;;4444815;32;318279;-81
2023/08/23 07:38:24;;;;;;;11.98;9.25;;;;;;;;;;4435507;32;318556;-82
2023/08/23 07:40:57;;;;;;;13.32;9.00;;;;;;;;;;4445236;32;317713;-83
2023/08/23 07:43:23;;;;;;;11.70;8.82;;;;;;;;;;4435466;32;318356;-82
2023/08/23 07:45:52;;;;;;;18.77;9.55;;;;;;;;;;4445167;32;316948;-83
2023/08/23 07:48:19;;;;;;;13.57;8.95;;;;;;;;;;4435450;32;318163;-83
2023/08/23 07:50:49;;;;;;;18.42;9.02;;;;;;;;;;4444728;32;318177;-82
2023/08/23 07:53:15;;;;;;;15.95;8.55;;;;;;;;;;4435294;32;318047;-82
2023/08/23 07:55:42;;;;;;;14.05;9.23;;;;;;;;;;4444284;32;318435;-81
2023/08/23 07:58:10;;;;;;;15.55;9.27;;;;;;;;;;4435946;32;318136;-82
2023/08/23 08:00:37;;;;;;;13.20;8.57;;;;;;;;;;4429847;32;416985;-81
2023/08/23 08:03:04;;;;;;;10.88;9.25;;;;;;;;;;4445284;32;318446;-82
2023/08/23 08:05:31;;;;;;;17.58;8.73;;;;;;;;;;4434392;32;318647;-82
2023/08/23 08:07:58;;;;;;;13.00;8.20;;;;;;;;;;4444007;32;317583;-82
2023/08/23 08:10:25;;;;;;;10.98;8.73;;;;;;;;;;4434843;32;318283;-82
2023/08/23 08:12:51;;;;;;;19.08;9.77;;;;;;;;;;4444751;32;317991;-82
2023/08/23 08:15:19;;;;;;;10.20;8.95;;;;;;;;;;4435052;32;319026;-82
2023/08/23 08:17:50;;;;;;;14.30;9.30;;;;;;;;;;4444859;32;318329;-82
2023/08/23 08:20:18;;;;;;;11.73;8.45;;;;;;;;;;4445958;32;318239;-83
2023/08/23 08:22:45;;;;;;;15.02;8.95;;;;;;;;;;4459072;32;318850;-82
2023/08/23 08:25:12;;;;;;;9.35;8.45;;;;;;;;;;4448871;32;318578;-81
2023/08/23 08:27:39;;;;;;;11.90;9.02;;;;;;;;;;4459012;32;317174;-81
2023/08/23 08:30:07;;;;;;;10.00;9.00;;;;;;;;;;4458667;32;318155;-80
2023/08/23 08:32:35;;;;;;;8.60;7.80;;;;;;;;;;4448301;32;343746;-80
2023/08/23 08:35:02;;;;;;;16.35;8.75;;;;;;;;;;4459179;32;317233;-82
2023/08/23 08:37:29;;;;;;;15.57;8.87;;;;;;;;;;4448058;32;339492;-81
2023/08/23 08:39:55;;;;;;;11.35;8.23;;;;;;;;;;4462727;32;318549;-81
2023/08/23 08:42:22;;;;;;;12.93;8.63;;;;;;;;;;4453227;32;318141;-82
2023/08/23 08:44:49;;;;;;;9.38;8.38;;;;;;;;;;4462090;32;318119;-82
2023/08/23 08:47:16;;;;;;;11.35;7.75;;;;;;;;;;4451067;32;357551;-81
2023/08/23 08:49:44;;;;;;;18.90;8.90;;;;;;;;;;4463612;32;318259;-82
2023/08/23 08:52:14;;;;;;;13.52;8.38;;;;;;;;;;4452243;32;351375;-83
2023/08/23 08:54:43;;;;;;;9.73;8.82;;;;;;;;;;4461071;32;317296;-82
2023/08/23 08:57:12;;;;;;;10.48;8.55;;;;;;;;;;4436170;32;316831;-83
2023/08/23 08:59:41;;;;;;;13.30;8.13;;;;;;;;;;4446254;32;318177;-82
2023/08/23 09:02:12;;;;;;;13.90;7.68;;;;;;;;;;4447281;32;318253;-81
2023/08/23 09:04:39;;;;;;;11.30;7.53;;;;;;;;;;4433940;32;418789;-80
2023/08/23 09:07:08;;;;;;;8.73;7.43;;;;;;;;;;4447749;32;317680;-81
2023/08/23 09:09:35;;;;;;;8.52;7.03;;;;;;;;;;4437553;32;317133;-81
2023/08/23 09:12:01;;;;;;;10.25;8.07;;;;;;;;;;4447674;32;316730;-81
2023/08/23 09:14:29;;;;;;;8.55;7.70;;;;;;;;;;4435895;32;318271;-82
2023/08/23 09:16:56;;;;;;;8.23;7.43;;;;;;;;;;4461132;32;317534;-81
2023/08/23 09:19:23;;;;;;;9.68;7.75;;;;;;;;;;4452748;32;317246;-81
2023/08/23 09:21:50;;;;;;;10.18;7.97;;;;;;;;;;4463311;32;317203;-81
2023/08/23 09:24:20;;;;;;;11.07;7.62;;;;;;;;;;4452528;32;318489;-81
2023/08/23 09:26:47;;;;;;;15.02;7.93;;;;;;;;;;4459903;32;318278;-81
2023/08/23 09:29:14;;;;;;;8.32;7.40;;;;;;;;;;4451007;32;318250;-81
2023/08/23 09:31:41;;;;;;;12.88;7.18;;;;;;;;;;4462549;32;317314;-82
2023/08/23 09:34:12;;;;;;;9.93;7.25;;;;;;;;;;4456912;32;318243;-82
2023/08/23 09:36:41;;;;;;;15.15;7.65;;;;;;;;;;4434546;32;416034;-82
2023/08/23 09:39:09;;;;;;;7.53;6.72;;;;;;;;;;4446947;32;318378;-81
2023/08/23 09:41:38;;;;;;;8.98;6.37;;;;;;;;;;4436746;32;316537;-81
2023/08/23 09:44:06;;;;;;;8.32;7.25;;;;;;;;;;4445058;32;317374;-82
2023/08/23 09:46:35;;;;;;;12.90;6.62;;;;;;;;;;4436621;32;316722;-81
2023/08/23 09:49:05;;;;;;;14.80;6.25;;;;;;;;;;4446519;32;318312;-82
2023/08/23 09:51:36;;;;;;;7.85;6.82;;;;;;;;;;4436037;32;318385;-82
2023/08/23 09:54:11;;;;;;;10.75;6.53;;;;;;;;;;4446282;32;317082;-82
2023/08/23 09:56:43;;;;;;;16.73;6.47;;;;;;;;;;4446793;32;418749;-82
2023/08/23 09:59:10;;;;;;;9.60;6.78;;;;;;;;;;4447600;32;318440;-82
2023/08/23 10:01:37;;;;;;;11.23;6.43;;;;;;;;;;4448892;32;418125;-81
2023/08/23 10:04:04;;;;;;;9.75;6.97;;;;;;;;;;4460590;32;317684;-81
2023/08/23 10:06:31;;;;;;;9.75;6.80;;;;;;;;;;4449018;32;317230;-81
2023/08/23 10:08:58;;;;;;;8.48;6.87;;;;;;;;;;4461982;32;317315;-81
2023/08/23 10:11:30;;;;;;;10.15;6.65;;;;;;;;;;4446875;32;317559;-82
2023/08/23 10:13:59;;;;;;;10.27;6.50;;;;;;;;;;4444902;32;318329;-83
2023/08/23 10:16:27;;;;;;;16.70;6.97;;;;;;;;;;4435476;32;318327;-83
2023/08/23 10:18:55;;;;;;;7.12;6.40;;;;;;;;;;4445443;32;318406;-82
2023/08/23 10:21:24;;;;;;;9.45;6.57;;;;;;;;;;4436767;32;316701;-83
2023/08/23 10:23:52;;;;;;;9.40;5.82;;;;;;;;;;4445359;32;317352;-82
2023/08/23 10:26:21;;;;;;;8.45;6.68;;;;;;;;;;4436371;32;317469;-83
2023/08/23 10:28:49;;;;;;;8.63;6.07;;;;;;;;;;4445769;32;316830;-83
2023/08/23 10:31:23;;;;;;;7.57;6.15;;;;;;;;;;4435218;32;317630;-82
2023/08/23 10:33:54;;;;;;;14.05;6.03;;;;;;;;;;4445938;32;316729;-82
2023/08/23 10:36:27;;;;;;;10.98;6.00;;;;;;;;;;4434540;32;337734;-81
2023/08/23 10:38:55;;;;;;;9.07;6.25;;;;;;;;;;4444616;32;353428;-81
2023/08/23 10:41:23;;;;;;;17.87;6.20;;;;;;;;;;4435232;32;317425;-83
2023/08/23 10:43:49;;;;;;;10.85;5.80;;;;;;;;;;4445612;32;318376;-82
2023/08/23 10:46:19;;;;;;;8.98;5.85;;;;;;;;;;4436186;32;318189;-83
2023/08/23 10:48:47;;;;;;;7.22;5.95;;;;;;;;;;4444979;32;317610;-83
2023/08/23 10:51:15;;;;;;;13.27;6.65;;;;;;;;;;4436199;32;317277;-83
2023/08/23 10:53:43;;;;;;;7.72;5.78;;;;;;;;;;4445053;32;340963;-82
2023/08/23 10:56:10;;;;;;;12.80;5.87;;;;;;;;;;4457348;32;316670;-82
2023/08/23 10:58:37;;;;;;;13.18;6.37;;;;;;;;;;4447693;32;419005;-83
2023/08/23 11:01:05;;;;;;;9.18;6.10;;;;;;;;;;4460128;32;317722;-81
2023/08/23 11:03:34;;;;;;;10.23;6.47;;;;;;;;;;4429730;32;317450;-80
2023/08/23 11:06:01;;;;;;;7.62;6.37;;;;;;;;;;4461455;32;318319;-81
2023/08/23 11:08:28;;;;;;;7.80;5.85;;;;;;;;;;4450867;32;325390;-81
2023/08/23 11:10:55;;;;;;;9.15;6.22;;;;;;;;;;4461337;32;317667;-81
2023/08/23 11:13:21;;;;;;;11.57;6.03;;;;;;;;;;4441865;32;316531;-81
2023/08/23 11:15:48;;;;;;;6.90;5.47;;;;;;;;;;4446809;32;318233;-81
2023/08/23 11:18:16;;;;;;;6.05;5.43;;;;;;;;;;4450014;32;317374;-81
2023/08/23 11:20:45;;;;;;;9.25;5.90;;;;;;;;;;4461603;32;317280;-81
2023/08/23 11:23:15;;;;;;;6.20;5.68;;;;;;;;;;4451379;32;317260;-82
2023/08/23 11:25:41;;;;;;;10.73;5.87;;;;;;;;;;4461247;32;317576;-81
2023/08/23 11:28:10;;;;;;;9.00;5.15;;;;;;;;;;4460298;32;317828;-81
2023/08/23 11:30:37;;;;;;;6.05;5.07;;;;;;;;;;4447912;32;416889;-81
2023/08/23 11:33:05;;;;;;;12.00;4.78;;;;;;;;;;4461037;32;317434;-81
2023/08/23 11:35:32;;;;;;;8.73;5.47;;;;;;;;;;4435164;32;317799;-81
2023/08/23 11:38:00;;;;;;;6.03;5.20;;;;;;;;;;4442894;32;346476;-81
2023/08/23 11:40:27;;;;;;;10.90;5.00;;;;;;;;;;4434671;32;317457;-81
2023/08/23 11:42:57;;;;;;;12.37;4.82;;;;;;;;;;4444017;32;317704;-81
2023/08/23 11:45:24;;;;;;;7.65;5.18;;;;;;;;;;4434618;32;318583;-81
2023/08/23 11:47:54;;;;;;;6.82;5.12;;;;;;;;;;4444255;32;317454;-81
2023/08/23 11:50:21;;;;;;;8.45;5.00;;;;;;;;;;4435073;32;317343;-82
2023/08/23 11:52:48;;;;;;;6.68;5.53;;;;;;;;;;4445039;32;317342;-83
2023/08/23 11:55:23;;;;;;;10.40;4.65;;;;;;;;;;4439595;32;317320;-83
2023/08/23 11:57:54;;;;;;;11.88;5.65;;;;;;;;;;4460123;32;318155;-83
2023/08/23 12:00:23;;;;;;;5.30;4.80;;;;;;;;;;4446225;32;318427;-83
2023/08/23 12:02:50;;;;;;;6.20;4.57;;;;;;;;;;4457587;32;317066;-83
2023/08/23 12:05:19;;;;;;;11.60;5.17;;;;;;;;;;4433340;32;317554;-83
2023/08/23 12:07:46;;;;;;;7.37;5.05;;;;;;;;;;4441232;32;318643;-83
2023/08/23 12:10:13;;;;;;;6.18;4.80;;;;;;;;;;4431546;32;351170;-85
2023/08/23 12:12:41;;;;;;;18.05;5.15;;;;;;;;;;4441462;32;316863;-83
2023/08/23 12:15:09;;;;;;;7.57;5.25;;;;;;;;;;4441665;32;318437;-84
2023/08/23 12:17:35;;;;;;;6.78;4.78;;;;;;;;;;4428200;32;417965;-88
2023/08/23 12:20:04;;;;;;;5.57;4.93;;;;;;;;;;4443512;32;317149;-91
2023/08/23 12:22:32;;;;;;;11.07;4.60;;;;;;;;;;4434633;32;317441;-87
2023/08/23 12:24:59;;;;;;;7.35;4.62;;;;;;;;;;4444556;32;318345;-88
2023/08/23 12:27:26;;;;;;;6.60;5.05;;;;;;;;;;4434788;32;317356;-88
2023/08/23 12:29:55;;;;;;;19.60;5.15;;;;;;;;;;4444915;32;316761;-85
2023/08/23 12:32:22;;;;;;;6.35;4.85;;;;;;;;;;4432281;32;355493;-85
2023/08/23 12:34:49;;;;;;;6.43;5.18;;;;;;;;;;4443997;32;317173;-84
2023/08/23 12:37:15;;;;;;;12.60;5.60;;;;;;;;;;4434782;32;316743;-82
2023/08/23 12:39:42;;;;;;;14.70;5.50;;;;;;;;;;4442783;32;318270;-83
2023/08/23 12:42:12;;;;;;;8.07;5.07;;;;;;;;;;4442241;32;321638;-83
2023/08/23 12:44:38;;;;;;;8.50;5.32;;;;;;;;;;4429320;32;417516;-83
2023/08/23 12:47:06;;;;;;;9.20;5.75;;;;;;;;;;4443149;32;317509;-83
2023/08/23 12:49:33;;;;;;;6.43;5.45;;;;;;;;;;4433118;32;317772;-83
2023/08/23 12:52:00;;;;;;;9.32;6.10;;;;;;;;;;4444256;32;317388;-83
2023/08/23 12:54:28;;;;;;;7.33;6.10;;;;;;;;;;4433405;32;317700;-83
2023/08/23 12:56:55;;;;;;;5.80;5.20;;;;;;;;;;4444485;32;317337;-83
2023/08/23 12:59:22;;;;;;;13.23;6.22;;;;;;;;;;4432635;32;317401;-83
2023/08/23 13:01:48;;;;;;;12.55;5.85;;;;;;;;;;4443229;32;318862;-83
2023/08/23 13:04:16;;;;;;;8.32;6.60;;;;;;;;;;4430878;32;354800;-83
2023/08/23 13:06:43;;;;;;;15.07;7.00;;;;;;;;;;4443037;32;317165;-82
2023/08/23 13:09:10;;;;;;;9.40;6.50;;;;;;;;;;4443844;32;317848;-83
2023/08/23 13:11:37;;;;;;;9.70;5.95;;;;;;;;;;4431017;32;417587;-82
2023/08/23 13:14:04;;;;;;;11.27;6.35;;;;;;;;;;4443853;32;317092;-82
2023/08/23 13:16:31;;;;;;;7.47;6.78;;;;;;;;;;4433507;32;318309;-83
2023/08/23 13:18:58;;;;;;;10.20;7.07;;;;;;;;;;4442372;32;317444;-83
2023/08/23 13:21:27;;;;;;;9.80;5.68;;;;;;;;;;4432475;32;318572;-83
2023/08/23 13:23:53;;;;;;;7.50;4.87;;;;;;;;;;4442807;32;317702;-83
2023/08/23 13:26:20;;;;;;;6.37;4.75;;;;;;;;;;4435317;32;317120;-84
2023/08/23 13:28:47;;;;;;;8.05;4.90;;;;;;;;;;4446130;32;317272;-86
2023/08/23 13:31:13;;;;;;;5.12;4.60;;;;;;;;;;4435793;32;317083;-83
2023/08/23 13:33:40;;;;;;;6.80;4.68;;;;;;;;;;4445071;32;317501;-81
2023/08/23 13:36:07;;;;;;;6.28;5.00;;;;;;;;;;4445307;32;326518;-85
2023/08/23 13:38:35;;;;;;;6.20;4.20;;;;;;;;;;4437117;32;317202;-81
2023/08/23 13:41:02;;;;;;;9.32;5.68;;;;;;;;;;4446255;32;316471;-84
2023/08/23 13:43:29;;;;;;;7.97;5.30;;;;;;;;;;4436945;32;317359;-82
2023/08/23 13:45:57;;;;;;;7.40;4.95;;;;;;;;;;4446384;32;317152;-82
2023/08/23 13:48:23;;;;;;;5.78;5.28;;;;;;;;;;4441231;32;316439;-84
2023/08/23 13:50:50;;;;;;;5.43;4.93;;;;;;;;;;4437678;32;316572;-83
2023/08/23 13:53:17;;;;;;;8.35;5.55;;;;;;;;;;4437578;32;317254;-80
2023/08/23 13:55:46;;;;;;;12.80;5.10;;;;;;;;;;4455961;32;317565;-79
2023/08/23 13:58:13;;;;;;;9.82;5.50;;;;;;;;;;4446618;32;318374;-80
2023/08/23 14:00:40;;;;;;;13.43;5.10;;;;;;;;;;4446358;32;317216;-82
2023/08/23 14:03:07;;;;;;;7.68;5.10;;;;;;;;;;4446097;32;318308;-80
2023/08/23 14:05:33;;;;;;;8.07;5.15;;;;;;;;;;4436259;32;317157;-81
2023/08/23 14:08:00;;;;;;;7.75;5.05;;;;;;;;;;4445059;32;317332;-81
2023/08/23 14:10:29;;;;;;;11.40;5.60;;;;;;;;;;4436568;32;317734;-83
2023/08/23 14:12:57;;;;;;;8.00;6.05;;;;;;;;;;4444631;32;317611;-82
2023/08/23 14:15:24;;;;;;;10.27;5.62;;;;;;;;;;4436474;32;317784;-80
2023/08/23 14:17:50;;;;;;;13.75;6.50;;;;;;;;;;4440147;32;319074;-80
2023/08/23 14:20:17;;;;;;;10.23;5.85;;;;;;;;;;4439524;32;317673;-80